Time;durP1;ratioP1;P1;durP2;ratioP2;P2;SDS_P1;SDS_P2;PMS_P1;PMS_P2;Temp;Humidity;BMP_temperature;BMP_pressure;BME280_temperature;BME280_humidity;BME280_pressure;Samples;Min_cycle;Max_cycle;Signal;HPM_P1;HPM_P2
2022/08/23 00:01:19;;;;;;;5.25;4.75;;;19.20;96.90;;;;;;5022698;28;20210;-85
2022/08/23 00:03:45;;;;;;;5.70;5.20;;;19.10;97.00;;;;;;5012902;28;20266;-85
2022/08/23 00:06:11;;;;;;;4.63;4.23;;;19.00;97.10;;;;;;5014131;28;20663;-85
2022/08/23 00:08:37;;;;;;;6.05;4.20;;;19.10;97.10;;;;;;5012578;28;20206;-85
2022/08/23 00:11:04;;;;;;;6.15;4.43;;;18.90;96.80;;;;;;5014588;28;20211;-85
2022/08/23 00:13:30;;;;;;;5.22;4.80;;;18.90;96.80;;;;;;5013380;28;20193;-85
2022/08/23 00:15:57;;;;;;;4.43;4.13;;;19.10;97.20;;;;;;5012327;28;20243;-85
2022/08/23 00:18:23;;;;;;;5.28;4.70;;;19.00;97.40;;;;;;5012130;28;20661;-85
2022/08/23 00:20:49;;;;;;;4.65;4.25;;;18.80;97.30;;;;;;5017494;28;20210;-85
2022/08/23 00:23:15;;;;;;;5.05;4.65;;;19.00;97.50;;;;;;5021976;28;20187;-86
2022/08/23 00:25:40;;;;;;;4.70;4.30;;;18.80;97.70;;;;;;5012000;28;20214;-85
2022/08/23 00:28:07;;;;;;;4.97;4.57;;;18.30;97.70;;;;;;5008932;28;20184;-85
2022/08/23 00:30:33;;;;;;;7.28;4.82;;;18.70;98.10;;;;;;5012716;28;20298;-85
2022/08/23 00:32:59;;;;;;;5.63;4.20;;;18.70;98.30;;;;;;5001348;28;20211;-85
2022/08/23 00:35:24;;;;;;;5.20;4.63;;;18.50;98.10;;;;;;5008540;28;20767;-85
2022/08/23 00:37:50;;;;;;;5.20;4.73;;;18.40;98.20;;;;;;5007396;28;20218;-85
2022/08/23 00:40:17;;;;;;;6.57;4.67;;;18.40;98.40;;;;;;5012246;28;20679;-85
2022/08/23 00:48:28;;;;;;;5.00;4.60;;;18.10;98.80;;;;;;5013885;28;20276;-86
2022/08/23 00:51:06;;;;;;;5.63;4.80;;;18.00;98.70;;;;;;5012417;28;20253;-85
2022/08/23 00:53:37;;;;;;;4.85;4.45;;;18.10;98.20;;;;;;5007725;28;20207;-84
2022/08/23 00:56:05;;;;;;;4.72;4.20;;;18.00;98.30;;;;;;5012158;28;20226;-85
2022/08/23 00:58:31;;;;;;;5.28;4.03;;;18.30;98.80;;;;;;5006773;28;20187;-84
2022/08/23 01:00:59;;;;;;;4.53;4.10;;;18.10;98.70;;;;;;5004928;28;20249;-85
2022/08/23 01:03:28;;;;;;;4.65;4.35;;;18.10;98.80;;;;;;5011457;28;20183;-85
2022/08/23 01:05:57;;;;;;;4.50;4.10;;;18.20;99.00;;;;;;5012275;28;20261;-85
2022/08/23 01:08:25;;;;;;;5.13;3.90;;;18.30;98.80;;;;;;5011765;28;20183;-85
2022/08/23 01:10:59;;;;;;;5.28;4.78;;;17.90;98.30;;;;;;5018283;28;20209;-85
2022/08/23 01:13:34;;;;;;;4.50;4.10;;;18.30;98.20;;;;;;5012896;28;20237;-85
2022/08/23 01:16:12;;;;;;;5.25;4.80;;;18.20;98.30;;;;;;5011750;28;20760;-84
2022/08/23 01:18:39;;;;;;;4.60;4.20;;;17.90;98.00;;;;;;5010722;28;20199;-85
2022/08/23 01:21:18;;;;;;;5.43;4.50;;;18.00;98.00;;;;;;4998789;28;20298;-85
2022/08/23 01:23:50;;;;;;;5.18;4.68;;;17.90;97.90;;;;;;5015959;28;20652;-85
2022/08/23 01:26:18;;;;;;;4.55;4.25;;;18.20;98.30;;;;;;5011474;28;20186;-84
2022/08/23 01:28:44;;;;;;;4.18;3.88;;;17.80;98.00;;;;;;5006653;28;20302;-85
2022/08/23 01:31:11;;;;;;;4.63;4.23;;;18.10;98.30;;;;;;5008381;28;20633;-84
2022/08/23 01:33:40;;;;;;;4.85;4.32;;;18.10;98.20;;;;;;5011866;28;20211;-85
2022/08/23 01:36:09;;;;;;;4.70;4.30;;;18.80;98.50;;;;;;5010421;28;20213;-84
2022/08/23 01:38:34;;;;;;;5.22;4.80;;;17.90;97.90;;;;;;5007955;28;20183;-85
2022/08/23 01:41:00;;;;;;;4.80;4.20;;;18.00;98.00;;;;;;5001450;28;20257;-85
2022/08/23 01:43:26;;;;;;;4.30;3.90;;;17.70;98.40;;;;;;5006156;28;20194;-84
2022/08/23 01:45:52;;;;;;;5.50;5.10;;;17.80;98.20;;;;;;5013063;28;20187;-86
2022/08/23 01:48:18;;;;;;;5.13;4.68;;;18.00;98.90;;;;;;5010452;28;20998;-85
2022/08/23 01:50:45;;;;;;;5.38;4.20;;;17.60;98.80;;;;;;5006130;28;20277;-85
2022/08/23 01:53:11;;;;;;;4.75;4.35;;;17.50;98.60;;;;;;5011478;28;20179;-85
2022/08/23 01:55:39;;;;;;;5.57;4.28;;;17.80;98.80;;;;;;5012050;28;20194;-85
2022/08/23 01:58:06;;;;;;;5.70;4.70;;;17.90;98.70;;;;;;5010181;28;20190;-85
2022/08/23 02:00:36;;;;;;;4.82;4.45;;;17.60;98.80;;;;;;5009708;28;20230;-85
2022/08/23 02:03:02;;;;;;;5.10;4.60;;;17.70;99.20;;;;;;5019947;28;20705;-85
2022/08/23 02:05:29;;;;;;;5.10;4.70;;;17.60;99.50;;;;;;5010800;28;20647;-85
2022/08/23 02:07:54;;;;;;;5.28;4.78;;;17.50;99.80;;;;;;5009662;28;20194;-85
2022/08/23 02:10:21;;;;;;;4.70;4.40;;;17.70;99.90;;;;;;5011171;28;20219;-85
2022/08/23 02:12:47;;;;;;;6.15;5.03;;;17.60;99.80;;;;;;5011102;28;20218;-85
2022/08/23 02:15:14;;;;;;;4.67;4.10;;;17.50;99.70;;;;;;5010164;28;20655;-85
2022/08/23 02:17:41;;;;;;;4.53;4.13;;;17.50;99.70;;;;;;5009771;28;20440;-84
2022/08/23 02:20:07;;;;;;;4.70;4.30;;;17.60;99.70;;;;;;5010740;28;20203;-85
2022/08/23 02:22:33;;;;;;;4.85;4.35;;;17.30;99.50;;;;;;5013597;28;20261;-86
2022/08/23 02:24:59;;;;;;;4.33;4.03;;;17.50;99.50;;;;;;5010543;28;20191;-85
2022/08/23 02:27:25;;;;;;;5.13;4.63;;;17.80;99.80;;;;;;5014875;28;20205;-86
2022/08/23 02:29:51;;;;;;;4.40;4.10;;;17.50;99.60;;;;;;5005029;28;20742;-85
2022/08/23 02:32:18;;;;;;;5.73;4.57;;;17.50;99.70;;;;;;5015722;28;20179;-85
2022/08/23 02:34:45;;;;;;;4.70;4.30;;;17.70;99.70;;;;;;5014390;28;20434;-85
2022/08/23 02:37:13;;;;;;;4.20;3.90;;;17.70;99.60;;;;;;5017459;28;20189;-85
2022/08/23 02:39:40;;;;;;;4.40;3.97;;;17.60;99.70;;;;;;5010552;28;20233;-85
2022/08/23 02:42:07;;;;;;;4.63;4.22;;;17.20;99.40;;;;;;5010781;28;20210;-86
2022/08/23 02:44:34;;;;;;;4.22;3.90;;;17.20;99.80;;;;;;5010613;28;20187;-84
2022/08/23 02:47:00;;;;;;;4.93;4.43;;;17.40;99.50;;;;;;5009147;28;20195;-86
2022/08/23 02:49:27;;;;;;;4.35;3.70;;;17.70;99.80;;;;;;5009887;28;20305;-85
2022/08/23 02:51:53;;;;;;;5.88;4.13;;;17.50;99.40;;;;;;5011037;28;20193;-85
2022/08/23 02:54:19;;;;;;;4.80;4.50;;;16.90;98.90;;;;;;5003874;28;20187;-86
2022/08/23 02:56:44;;;;;;;4.70;4.40;;;17.50;99.00;;;;;;5012272;28;20258;-85
2022/08/23 02:59:10;;;;;;;4.40;4.00;;;17.40;99.20;;;;;;5010995;28;20434;-85
2022/08/23 03:01:38;;;;;;;6.70;4.20;;;17.60;99.40;;;;;;5010215;28;20193;-86
2022/08/23 03:04:07;;;;;;;4.32;3.92;;;17.50;99.20;;;;;;5011302;28;20182;-85
2022/08/23 03:06:33;;;;;;;5.07;4.28;;;17.20;98.90;;;;;;5009972;28;20194;-85
2022/08/23 03:08:58;;;;;;;4.83;4.23;;;17.50;99.10;;;;;;5010307;28;20203;-86
2022/08/23 03:11:24;;;;;;;4.30;4.00;;;17.70;99.10;;;;;;5008574;28;20902;-85
2022/08/23 03:13:51;;;;;;;4.40;4.00;;;17.70;99.00;;;;;;5020774;28;20230;-85
2022/08/23 03:16:17;;;;;;;4.72;4.20;;;18.10;99.20;;;;;;5003098;28;20183;-86
2022/08/23 03:18:43;;;;;;;4.63;4.32;;;17.60;99.00;;;;;;5008397;28;20237;-85
2022/08/23 03:21:10;;;;;;;4.33;4.03;;;17.60;99.00;;;;;;5004006;28;20214;-86
2022/08/23 03:23:37;;;;;;;3.90;3.60;;;17.70;99.20;;;;;;5002887;28;20520;-86
2022/08/23 03:26:05;;;;;;;5.07;4.68;;;17.60;99.10;;;;;;5011671;28;20190;-85
2022/08/23 03:28:33;;;;;;;4.20;3.90;;;17.00;98.80;;;;;;5008310;28;20183;-85
2022/08/23 03:30:59;;;;;;;4.93;4.50;;;17.00;99.30;;;;;;5002958;28;20206;-85
2022/08/23 03:33:25;;;;;;;4.80;4.40;;;17.40;99.40;;;;;;5009975;28;20194;-85
2022/08/23 03:35:51;;;;;;;4.57;3.87;;;17.20;99.00;;;;;;5011759;28;20946;-86
2022/08/23 03:38:18;;;;;;;6.07;4.50;;;17.50;99.20;;;;;;5011592;28;20193;-84
2022/08/23 03:40:44;;;;;;;4.75;4.30;;;17.40;99.10;;;;;;5012242;28;20461;-85
2022/08/23 03:43:10;;;;;;;5.03;4.63;;;17.50;99.20;;;;;;5014080;28;20191;-85
2022/08/23 03:45:36;;;;;;;4.77;4.37;;;17.60;99.20;;;;;;5021949;28;20273;-86
2022/08/23 03:48:03;;;;;;;4.50;4.10;;;17.70;99.20;;;;;;5009106;28;20438;-85
2022/08/23 03:50:28;;;;;;;4.45;4.15;;;17.20;98.80;;;;;;5003683;28;20207;-85
2022/08/23 03:52:54;;;;;;;6.20;4.70;;;17.30;98.90;;;;;;5012166;28;20277;-86
2022/08/23 03:55:19;;;;;;;4.50;4.20;;;17.30;98.90;;;;;;5012152;28;20186;-85
2022/08/23 03:57:45;;;;;;;5.13;4.73;;;17.10;99.10;;;;;;5012640;28;20186;-85
2022/08/23 04:00:12;;;;;;;5.37;4.70;;;16.90;98.80;;;;;;5014673;28;20743;-85
2022/08/23 04:02:38;;;;;;;4.00;3.70;;;17.10;99.20;;;;;;5011145;28;20187;-85
2022/08/23 04:05:05;;;;;;;5.43;4.93;;;16.70;98.70;;;;;;5030345;28;20550;-86
2022/08/23 04:07:30;;;;;;;5.03;4.43;;;17.00;99.10;;;;;;5010243;28;20493;-85
2022/08/23 04:09:56;;;;;;;5.00;4.50;;;17.40;99.50;;;;;;5011695;28;20214;-81
2022/08/23 04:12:22;;;;;;;5.07;4.57;;;17.10;99.40;;;;;;5010913;28;20194;-82
2022/08/23 04:14:48;;;;;;;5.10;4.60;;;17.10;99.20;;;;;;5011416;28;20444;-81
2022/08/23 04:17:14;;;;;;;4.47;3.97;;;16.80;99.20;;;;;;5010093;28;20465;-82
2022/08/23 04:19:40;;;;;;;5.45;4.63;;;17.20;99.60;;;;;;5002807;28;20199;-82
2022/08/23 04:22:14;;;;;;;4.90;4.20;;;17.30;99.70;;;;;;5005858;28;20187;-82
2022/08/23 04:24:40;;;;;;;4.40;4.10;;;17.40;99.90;;;;;;5008269;28;20205;-82
2022/08/23 04:27:06;;;;;;;4.47;4.10;;;17.10;99.90;;;;;;5009249;28;20179;-82
2022/08/23 04:29:32;;;;;;;5.50;4.60;;;16.80;99.70;;;;;;5009899;28;20247;-82
2022/08/23 04:31:58;;;;;;;4.77;4.30;;;17.10;99.90;;;;;;5003221;28;20301;-83
2022/08/23 04:34:23;;;;;;;5.53;5.03;;;17.10;99.90;;;;;;5009494;28;20193;-82
2022/08/23 04:36:49;;;;;;;6.03;5.43;;;16.80;99.90;;;;;;5011060;28;20655;-82
2022/08/23 04:39:15;;;;;;;5.40;4.90;;;16.60;99.90;;;;;;5010577;28;20256;-82
2022/08/23 04:44:25;;;;;;;5.40;4.90;;;16.70;99.90;;;;;;5013204;28;20248;-82
2022/08/23 04:46:51;;;;;;;4.73;4.43;;;16.90;99.90;;;;;;5010226;28;20190;-83
2022/08/23 04:49:17;;;;;;;4.83;4.43;;;17.10;99.90;;;;;;5011069;28;20222;-82
2022/08/23 04:51:43;;;;;;;5.50;5.00;;;16.70;99.90;;;;;;5017947;28;20261;-82
2022/08/23 04:54:09;;;;;;;6.28;5.15;;;16.60;99.90;;;;;;5010911;28;20273;-82
2022/08/23 04:56:34;;;;;;;5.20;4.80;;;17.00;99.90;;;;;;5009888;28;20270;-82
2022/08/23 04:59:00;;;;;;;5.30;4.80;;;16.50;99.90;;;;;;5011232;28;20227;-82
2022/08/23 05:01:26;;;;;;;5.50;4.77;;;16.60;99.90;;;;;;5008337;28;20337;-82
2022/08/23 05:03:52;;;;;;;5.20;4.80;;;16.60;99.90;;;;;;5010095;28;20444;-83
2022/08/23 05:06:18;;;;;;;5.95;5.05;;;17.00;99.90;;;;;;5006547;28;20202;-82
2022/08/23 05:08:43;;;;;;;6.00;4.90;;;18.30;99.90;;;;;;5006928;28;20195;-82
2022/08/23 05:11:10;;;;;;;5.63;5.23;;;16.60;99.90;;;;;;5009576;28;20691;-82
2022/08/23 05:13:37;;;;;;;4.80;4.40;;;16.80;99.90;;;;;;5010021;28;20232;-82
2022/08/23 05:16:04;;;;;;;5.45;4.95;;;16.90;99.90;;;;;;5007006;28;20186;-81
2022/08/23 05:18:29;;;;;;;5.20;4.53;;;17.00;99.90;;;;;;5007653;28;20183;-82
2022/08/23 05:20:55;;;;;;;6.23;5.63;;;17.10;99.90;;;;;;5012364;28;20214;-92
2022/08/23 05:23:21;;;;;;;6.00;4.83;;;17.20;99.90;;;;;;5016852;28;20197;-92
2022/08/23 05:25:49;;;;;;;4.90;4.50;;;16.80;99.90;;;;;;5023122;28;20271;-93
2022/08/23 05:28:18;;;;;;;4.68;4.28;;;17.00;99.90;;;;;;5013953;28;20186;-93
2022/08/23 05:30:54;;;;;;;4.55;4.15;;;17.30;99.90;;;;;;5004283;28;20273;-93
2022/08/23 05:33:20;;;;;;;4.57;4.18;;;16.80;99.80;;;;;;5010506;28;20182;-94
2022/08/23 05:35:45;;;;;;;5.97;5.50;;;17.30;99.90;;;;;;5024194;28;20194;-89
2022/08/23 05:38:11;;;;;;;5.37;4.30;;;17.30;99.90;;;;;;5018231;28;20190;-92
2022/08/23 05:40:36;;;;;;;5.47;4.97;;;17.40;99.80;;;;;;5013103;28;20236;-93
2022/08/23 05:43:02;;;;;;;4.97;4.57;;;17.20;99.50;;;;;;5017225;28;20225;-93
2022/08/23 05:45:27;;;;;;;4.97;4.57;;;17.20;99.50;;;;;;5018136;28;20186;-94
2022/08/23 05:47:53;;;;;;;5.23;4.77;;;17.80;99.60;;;;;;5012208;28;20281;-87
2022/08/23 05:50:19;;;;;;;5.23;4.73;;;18.00;99.50;;;;;;5007939;28;20211;-90
2022/08/23 05:52:44;;;;;;;4.67;4.27;;;17.70;98.80;;;;;;5012739;28;20269;-92
2022/08/23 05:55:10;;;;;;;5.60;5.00;;;18.10;98.50;;;;;;5014387;28;20269;-94
2022/08/23 05:57:37;;;;;;;5.73;5.03;;;18.40;98.40;;;;;;5011560;28;20183;-87
2022/08/23 06:00:13;;;;;;;5.65;4.40;;;18.50;97.70;;;;;;5012268;28;20221;-86
2022/08/23 06:02:39;;;;;;;5.82;4.70;;;18.20;97.30;;;;;;5013631;28;20401;-86
2022/08/23 06:05:05;;;;;;;4.83;4.43;;;17.90;96.90;;;;;;5012792;28;20660;-88
2022/08/23 06:07:32;;;;;;;5.10;4.60;;;18.30;97.00;;;;;;5010201;28;20182;-88
2022/08/23 06:09:58;;;;;;;5.95;5.45;;;18.40;96.90;;;;;;5014604;28;20481;-90
2022/08/23 06:12:24;;;;;;;4.80;3.90;;;18.50;96.60;;;;;;5013626;28;20185;-91
2022/08/23 06:14:49;;;;;;;4.50;4.10;;;18.30;96.10;;;;;;5014412;28;20205;-92
2022/08/23 06:17:15;;;;;;;5.33;4.83;;;19.00;96.50;;;;;;5009313;28;20266;-88
2022/08/23 06:19:40;;;;;;;5.40;4.90;;;19.00;96.40;;;;;;5011230;28;20361;-88
2022/08/23 06:22:06;;;;;;;8.70;5.07;;;19.00;96.70;;;;;;5007948;28;20713;-88
2022/08/23 06:24:32;;;;;;;5.00;4.60;;;18.90;96.10;;;;;;5009990;28;20210;-88
2022/08/23 06:26:58;;;;;;;4.53;4.10;;;18.80;96.50;;;;;;5011232;28;20191;-91
2022/08/23 06:29:23;;;;;;;5.33;4.30;;;19.50;96.30;;;;;;5011742;28;20462;-90
2022/08/23 06:31:51;;;;;;;4.50;4.10;;;19.50;95.70;;;;;;5011038;28;20449;-87
2022/08/23 06:34:32;;;;;;;5.30;4.45;;;19.40;95.10;;;;;;5013676;28;20173;-88
2022/08/23 06:37:09;;;;;;;4.50;4.10;;;19.60;95.00;;;;;;5007956;28;20295;-88
2022/08/23 06:39:35;;;;;;;4.25;3.85;;;19.70;94.70;;;;;;5010862;28;20213;-89
2022/08/23 06:42:10;;;;;;;6.22;4.72;;;20.10;94.20;;;;;;5009771;28;20215;-86
2022/08/23 06:44:36;;;;;;;4.72;4.00;;;20.50;94.40;;;;;;5004873;28;20273;-86
2022/08/23 06:47:04;;;;;;;8.82;5.20;;;20.50;94.40;;;;;;5000707;28;20797;-89
2022/08/23 06:49:30;;;;;;;5.53;4.90;;;20.40;93.30;;;;;;5012545;28;20532;-91
2022/08/23 06:51:58;;;;;;;7.43;5.07;;;20.70;92.90;;;;;;5017249;28;20241;-92
2022/08/23 06:54:27;;;;;;;6.50;4.85;;;20.50;93.60;;;;;;5013434;28;20433;-87
2022/08/23 06:56:54;;;;;;;4.47;4.07;;;21.50;93.10;;;;;;5010808;28;20236;-91
2022/08/23 06:59:20;;;;;;;5.35;4.85;;;21.00;92.10;;;;;;5015024;28;20614;-92
2022/08/23 07:01:49;;;;;;;6.53;3.80;;;21.30;91.60;;;;;;5015749;28;20179;-96
2022/08/23 07:04:21;;;;;;;7.15;4.20;;;21.60;91.60;;;;;;5020723;28;20214;-84
2022/08/23 07:06:47;;;;;;;4.68;4.18;;;21.70;91.10;;;;;;5004746;28;20724;-83
2022/08/23 07:09:13;;;;;;;4.60;4.20;;;23.10;91.20;;;;;;5006913;28;20293;-81
2022/08/23 07:11:38;;;;;;;5.13;4.10;;;22.00;90.20;;;;;;5010665;28;20191;-88
2022/08/23 07:14:09;;;;;;;4.53;4.13;;;23.30;87.30;;;;;;5012961;28;20979;-88
2022/08/23 07:16:37;;;;;;;6.20;4.47;;;25.60;79.80;;;;;;5008768;28;20183;-88
2022/08/23 07:19:03;;;;;;;5.07;4.00;;;28.40;70.50;;;;;;5008894;28;20655;-89
2022/08/23 07:21:29;;;;;;;7.30;3.93;;;31.10;61.40;;;;;;5007875;28;21007;-84
2022/08/23 07:23:55;;;;;;;7.00;4.63;;;32.10;55.60;;;;;;5005594;28;20545;-83
2022/08/23 07:26:22;;;;;;;4.43;4.03;;;33.20;52.30;;;;;;5005540;28;20532;-84
2022/08/23 07:28:48;;;;;;;5.83;4.13;;;33.90;49.20;;;;;;5005166;28;20186;-82
2022/08/23 07:31:17;;;;;;;4.13;3.73;;;35.00;48.00;;;;;;5009173;28;20553;-86
2022/08/23 07:33:43;;;;;;;4.47;4.07;;;35.60;45.50;;;;;;5008078;28;20444;-85
2022/08/23 07:36:12;;;;;;;7.10;4.33;;;37.30;43.40;;;;;;5007303;28;20434;-86
2022/08/23 07:38:37;;;;;;;8.13;4.20;;;38.40;40.90;;;;;;5003231;28;20445;-85
2022/08/23 07:41:03;;;;;;;4.40;4.00;;;39.40;38.70;;;;;;5003147;28;20513;-82
2022/08/23 07:43:31;;;;;;;3.13;2.93;;;38.50;37.80;;;;;;5009339;28;20265;-83
2022/08/23 07:45:57;;;;;;;4.07;3.50;;;39.90;38.60;;;;;;5003367;28;20449;-84
2022/08/23 07:48:23;;;;;;;11.20;4.47;;;38.30;38.00;;;;;;5007830;28;20449;-84
2022/08/23 07:50:57;;;;;;;5.23;4.43;;;39.70;37.20;;;;;;5006347;28;20215;-84
2022/08/23 07:53:24;;;;;;;3.50;3.20;;;37.80;37.00;;;;;;4999885;28;20183;-84
2022/08/23 07:55:51;;;;;;;4.13;3.83;;;38.80;37.30;;;;;;5009657;28;20441;-85
2022/08/23 07:58:16;;;;;;;4.13;3.77;;;39.40;36.20;;;;;;5006509;28;20941;-84
2022/08/23 08:00:43;;;;;;;4.23;3.80;;;39.80;34.80;;;;;;5003707;28;20477;-83
2022/08/23 08:03:10;;;;;;;5.20;4.10;;;40.30;34.40;;;;;;5008729;28;20191;-81
2022/08/23 08:05:36;;;;;;;4.50;4.10;;;40.70;34.20;;;;;;5006642;28;20556;-82
2022/08/23 08:08:03;;;;;;;4.13;3.70;;;41.10;32.40;;;;;;5017804;28;20525;-82
2022/08/23 08:10:29;;;;;;;4.00;3.60;;;40.20;32.90;;;;;;5006462;28;20484;-82
2022/08/23 08:12:55;;;;;;;6.30;4.30;;;39.20;33.90;;;;;;5008287;28;20884;-81
2022/08/23 08:15:21;;;;;;;4.30;4.00;;;39.40;34.10;;;;;;5008260;28;20504;-83
2022/08/23 08:17:48;;;;;;;5.47;4.30;;;40.30;34.20;;;;;;5008334;28;20205;-82
2022/08/23 08:20:14;;;;;;;5.10;4.23;;;39.50;33.40;;;;;;5007518;28;20981;-82
2022/08/23 08:22:40;;;;;;;5.53;3.70;;;38.30;33.50;;;;;;5006975;28;20457;-83
2022/08/23 08:25:07;;;;;;;4.50;4.03;;;37.60;35.40;;;;;;5010456;28;20472;-83
2022/08/23 08:27:33;;;;;;;4.90;4.50;;;39.50;33.90;;;;;;5008964;28;20537;-82
2022/08/23 08:29:59;;;;;;;6.10;4.90;;;40.30;32.80;;;;;;5006867;28;20552;-82
2022/08/23 08:32:24;;;;;;;4.03;3.63;;;41.30;32.10;;;;;;5007183;28;20186;-81
2022/08/23 08:34:50;;;;;;;8.23;4.33;;;41.20;31.90;;;;;;5010004;28;20194;-82
2022/08/23 08:37:15;;;;;;;3.70;3.27;;;41.40;31.10;;;;;;5008146;28;20175;-82
2022/08/23 08:39:44;;;;;;;4.50;3.20;;;42.30;29.80;;;;;;5008708;28;20210;-83
2022/08/23 08:42:44;;;;;;;4.00;3.10;;;41.90;28.90;;;;;;5006495;28;20191;-83
2022/08/23 08:45:13;;;;;;;5.30;3.10;;;41.30;29.00;;;;;;5008323;28;20437;-83
2022/08/23 08:48:00;;;;;;;3.33;2.70;;;41.90;28.90;;;;;;5008749;28;20433;-82
2022/08/23 08:50:39;;;;;;;4.90;3.07;;;41.20;29.20;;;;;;5007828;28;20613;-82
2022/08/23 08:53:10;;;;;;;3.20;3.00;;;41.00;29.30;;;;;;5004584;28;20461;-83
2022/08/23 08:55:49;;;;;;;3.30;2.90;;;41.30;29.00;;;;;;5003149;28;20440;-89
2022/08/23 08:58:32;;;;;;;8.10;3.73;;;40.80;29.30;;;;;;5011193;28;20438;-84
2022/08/23 09:00:58;;;;;;;4.37;4.07;;;41.10;29.50;;;;;;5009551;28;20469;-83
2022/08/23 09:03:29;;;;;;;4.30;4.00;;;40.40;30.90;;;;;;5011868;28;20468;-83
2022/08/23 09:06:10;;;;;;;5.90;4.70;;;39.80;31.70;;;;;;5005017;28;20503;-84
2022/08/23 09:08:41;;;;;;;4.27;3.93;;;39.90;31.50;;;;;;4999731;28;20464;-83
2022/08/23 09:11:24;;;;;;;5.80;3.73;;;39.50;31.70;;;;;;5011463;28;20457;-84
2022/08/23 09:14:27;;;;;;;4.80;3.47;;;40.30;30.90;;;;;;5011576;28;20425;-83
2022/08/23 09:17:18;;;;;;;5.90;5.30;;;39.90;31.20;;;;;;5005152;28;20518;-84
2022/08/23 09:19:47;;;;;;;5.10;4.20;;;40.40;31.50;;;;;;5010796;28;20450;-83
2022/08/23 09:22:19;;;;;;;3.67;3.37;;;40.10;31.20;;;;;;5011261;28;20442;-83
2022/08/23 09:24:45;;;;;;;7.33;4.43;;;38.80;31.40;;;;;;5007427;28;21231;-83
2022/08/23 09:27:10;;;;;;;3.40;3.10;;;38.50;33.10;;;;;;5010715;28;20532;-83
2022/08/23 09:29:39;;;;;;;3.53;3.23;;;37.20;33.30;;;;;;5011223;28;20214;-83
2022/08/23 09:32:24;;;;;;;3.87;3.33;;;36.20;35.00;;;;;;4999822;28;20188;-83
2022/08/23 09:34:49;;;;;;;3.80;3.50;;;34.60;35.90;;;;;;5011687;28;20492;-84
2022/08/23 09:37:23;;;;;;;3.97;3.50;;;34.10;37.20;;;;;;5020657;28;20952;-84
2022/08/23 09:40:09;;;;;;;3.17;2.97;;;32.60;38.20;;;;;;5001893;28;20210;-83
2022/08/23 09:42:37;;;;;;;3.13;2.83;;;32.00;39.60;;;;;;5003724;28;20973;-84
2022/08/23 09:45:26;;;;;;;3.90;2.80;;;31.50;39.10;;;;;;5009808;28;20478;-84
2022/08/23 09:47:52;;;;;;;3.03;2.83;;;31.10;39.80;;;;;;5004295;28;20492;-83
2022/08/23 09:50:28;;;;;;;5.60;3.10;;;31.20;40.10;;;;;;5009710;28;20477;-84
2022/08/23 09:53:03;;;;;;;3.30;3.00;;;30.50;40.10;;;;;;5004815;28;20464;-84
2022/08/23 09:55:35;;;;;;;3.50;2.70;;;30.80;40.80;;;;;;5009745;28;20862;-83
2022/08/23 09:58:22;;;;;;;2.53;2.33;;;30.50;40.50;;;;;;5010976;28;20442;-83
2022/08/23 10:01:08;;;;;;;2.93;2.70;;;31.90;40.70;;;;;;5009890;28;20469;-83
2022/08/23 10:03:33;;;;;;;3.23;2.70;;;31.20;39.40;;;;;;5008516;28;20539;-83
2022/08/23 10:06:00;;;;;;;2.77;2.57;;;31.20;38.30;;;;;;5009558;28;20945;-84
2022/08/23 10:08:32;;;;;;;3.87;2.40;;;31.20;38.90;;;;;;5009187;28;20196;-84
2022/08/23 10:11:19;;;;;;;3.00;2.80;;;31.00;39.30;;;;;;5009845;28;20561;-84
2022/08/23 10:13:45;;;;;;;3.30;2.60;;;30.60;39.70;;;;;;5010950;28;20640;-83
2022/08/23 10:16:39;;;;;;;3.43;3.13;;;30.40;39.60;;;;;;5007102;28;20979;-84
2022/08/23 10:19:41;;;;;;;3.57;2.47;;;30.40;40.10;;;;;;5003609;28;20263;-83
2022/08/23 10:22:14;;;;;;;3.33;2.43;;;30.00;40.30;;;;;;5004178;28;21015;-84
2022/08/23 10:25:02;;;;;;;3.20;2.93;;;30.00;40.90;;;;;;5006674;28;20511;-84
2022/08/23 10:30:38;;;;;;;10.97;8.20;;;29.70;41.20;;;;;;5010901;28;20527;-83
2022/08/23 10:33:18;;;;;;;3.27;2.97;;;29.60;41.10;;;;;;5005940;28;20979;-89
2022/08/23 10:36:08;;;;;;;3.00;2.70;;;29.40;40.90;;;;;;5000450;28;20467;-87
2022/08/23 10:39:00;;;;;;;3.50;2.80;;;29.50;41.60;;;;;;4997461;28;20467;-83
2022/08/23 10:41:49;;;;;;;3.10;2.90;;;29.40;40.70;;;;;;4992604;28;20470;-84
2022/08/23 10:44:24;;;;;;;3.73;2.83;;;29.20;41.00;;;;;;5008395;28;20589;-84
2022/08/23 10:47:18;;;;;;;2.90;2.70;;;29.30;40.90;;;;;;5008240;28;20533;-84
2022/08/23 10:49:48;;;;;;;3.20;2.90;;;29.20;41.10;;;;;;5009660;28;20893;-90
2022/08/23 10:52:21;;;;;;;4.10;2.80;;;29.20;41.00;;;;;;5007966;28;20440;-89
2022/08/23 10:55:04;;;;;;;4.23;2.70;;;29.60;41.40;;;;;;5012058;28;20433;-89
2022/08/23 10:57:38;;;;;;;4.17;2.73;;;29.80;41.00;;;;;;5012562;28;20571;-88
2022/08/23 11:00:12;;;;;;;3.07;2.77;;;29.60;40.60;;;;;;5012884;28;20458;-89
2022/08/23 11:03:03;;;;;;;3.10;2.90;;;29.60;40.00;;;;;;5004137;28;20439;-91
2022/08/23 11:05:34;;;;;;;5.73;2.80;;;29.60;39.80;;;;;;5011920;28;20444;-91
2022/08/23 11:08:06;;;;;;;2.27;2.17;;;29.60;40.00;;;;;;5020389;28;20449;-81
2022/08/23 11:10:38;;;;;;;2.83;2.63;;;29.80;39.30;;;;;;5001293;28;20548;-82
2022/08/23 11:13:09;;;;;;;3.60;3.30;;;30.10;39.50;;;;;;5006182;28;20426;-82
2022/08/23 11:15:45;;;;;;;2.90;2.70;;;29.90;39.70;;;;;;5009087;28;20973;-81
2022/08/23 11:18:48;;;;;;;3.27;2.80;;;29.90;39.20;;;;;;5008211;28;20429;-81
2022/08/23 11:21:16;;;;;;;4.50;3.27;;;29.70;39.20;;;;;;5006369;28;20544;-81
2022/08/23 11:23:42;;;;;;;2.90;2.70;;;29.50;39.60;;;;;;5002699;28;20445;-81
2022/08/23 11:26:21;;;;;;;2.87;2.67;;;29.70;40.00;;;;;;5021689;28;20444;-81
2022/08/23 11:28:51;;;;;;;3.40;3.20;;;29.60;40.30;;;;;;5005409;28;20182;-81
2022/08/23 11:31:30;;;;;;;3.60;3.30;;;29.60;40.40;;;;;;5004957;28;20476;-82
2022/08/23 11:34:07;;;;;;;3.03;2.80;;;29.90;40.20;;;;;;5006394;28;20528;-83
2022/08/23 11:36:35;;;;;;;3.10;2.90;;;30.00;40.80;;;;;;4995863;28;20442;-81
2022/08/23 11:39:11;;;;;;;5.30;3.00;;;29.90;40.40;;;;;;5005023;28;20802;-81
2022/08/23 11:41:55;;;;;;;3.10;2.90;;;29.80;40.30;;;;;;5007190;28;20532;-81
2022/08/23 11:44:34;;;;;;;3.90;3.07;;;29.90;40.40;;;;;;5006722;28;20440;-84
2022/08/23 11:47:04;;;;;;;2.80;2.60;;;29.90;40.00;;;;;;5005556;28;20987;-82
2022/08/23 11:50:04;;;;;;;6.67;3.67;;;30.20;40.20;;;;;;5005226;28;20883;-82
2022/08/23 11:53:02;;;;;;;3.67;3.37;;;29.70;39.90;;;;;;5009830;28;20461;-82
2022/08/23 11:55:55;;;;;;;3.33;3.13;;;29.70;40.10;;;;;;5002344;28;20467;-85
2022/08/23 11:58:43;;;;;;;3.00;2.80;;;29.80;40.50;;;;;;5010432;28;20531;-83
2022/08/23 12:01:12;;;;;;;3.53;3.23;;;30.20;40.60;;;;;;5020061;28;20892;-81
2022/08/23 12:03:51;;;;;;;3.10;2.77;;;30.70;39.80;;;;;;5005131;28;20940;-83
2022/08/23 12:06:19;;;;;;;3.70;2.90;;;30.70;38.80;;;;;;5009148;28;20479;-82
2022/08/23 12:09:00;;;;;;;3.30;3.00;;;30.50;38.20;;;;;;5007740;28;20441;-81
2022/08/23 12:11:55;;;;;;;4.47;3.50;;;31.10;38.70;;;;;;5007929;28;20462;-81
2022/08/23 12:14:29;;;;;;;4.10;3.80;;;30.60;38.50;;;;;;5006574;28;20537;-82
2022/08/23 12:17:24;;;;;;;5.60;3.10;;;30.80;38.90;;;;;;5006901;28;20445;-83
2022/08/23 12:19:56;;;;;;;4.00;3.03;;;30.50;38.90;;;;;;5006611;28;20646;-83
2022/08/23 12:22:26;;;;;;;3.27;2.97;;;30.10;39.30;;;;;;5006944;28;20445;-84
2022/08/23 12:24:56;;;;;;;2.83;2.60;;;30.00;39.30;;;;;;5006207;28;20437;-84
2022/08/23 12:27:30;;;;;;;3.30;2.97;;;30.00;39.70;;;;;;5008141;28;20473;-84
2022/08/23 12:30:06;;;;;;;3.80;3.50;;;29.80;39.40;;;;;;5009521;28;20473;-82
2022/08/23 12:32:35;;;;;;;4.80;3.37;;;29.70;39.50;;;;;;5003419;28;20537;-82
2022/08/23 12:35:21;;;;;;;2.77;2.53;;;29.80;39.60;;;;;;5009627;28;20496;-82
2022/08/23 12:38:11;;;;;;;3.20;3.00;;;29.80;40.10;;;;;;5004666;28;20441;-80
2022/08/23 12:40:44;;;;;;;2.93;2.73;;;30.00;40.40;;;;;;5007010;28;20520;-82
2022/08/23 12:43:30;;;;;;;3.23;2.97;;;30.00;39.70;;;;;;5007024;28;20451;-81
2022/08/23 12:45:59;;;;;;;3.50;3.20;;;29.80;39.70;;;;;;5021595;28;21002;-81
2022/08/23 12:48:29;;;;;;;3.13;2.90;;;30.00;40.20;;;;;;5012093;28;20452;-82
2022/08/23 12:50:57;;;;;;;3.03;2.83;;;30.40;40.60;;;;;;5009735;28;20473;-82
2022/08/23 12:53:31;;;;;;;3.33;3.13;;;30.00;39.50;;;;;;5006937;28;20799;-83
2022/08/23 12:56:14;;;;;;;3.63;3.10;;;30.00;39.80;;;;;;5008281;28;20440;-80
2022/08/23 12:58:46;;;;;;;3.80;3.50;;;29.90;39.70;;;;;;5008020;28;20451;-85
2022/08/23 13:01:24;;;;;;;3.83;3.13;;;30.20;40.40;;;;;;5005437;28;20472;-84
2022/08/23 13:03:57;;;;;;;3.27;2.70;;;30.20;40.10;;;;;;5006630;28;20468;-83
2022/08/23 13:06:32;;;;;;;4.00;3.07;;;30.30;39.60;;;;;;5008499;28;20476;-82
2022/08/23 13:09:15;;;;;;;4.50;4.10;;;29.60;39.30;;;;;;5004434;28;20460;-83
2022/08/23 13:11:42;;;;;;;7.30;6.80;;;30.20;39.80;;;;;;5004842;28;20947;-84
2022/08/23 13:14:36;;;;;;;3.43;3.13;;;30.20;39.70;;;;;;5008885;28;21014;-84
2022/08/23 13:17:23;;;;;;;3.40;3.13;;;30.30;40.00;;;;;;5003049;28;20480;-83